createdAt,value
2018-10-18T00:00:03.709Z,33.80
2018-10-18T00:05:07.821Z,28.93
2018-10-18T00:10:11.123Z,33.60
2018-10-18T00:15:14.843Z,32.33
2018-10-18T00:20:18.256Z,36.07
2018-10-18T00:25:21.568Z,33.13
2018-10-18T00:30:24.881Z,36.97
2018-10-18T00:35:28.171Z,35.37
2018-10-18T00:40:31.498Z,42.63
2018-10-18T00:45:34.791Z,42.10
2018-10-18T00:50:38.094Z,31.50
2018-10-18T00:55:41.409Z,33.07
2018-10-18T01:00:44.708Z,31.63
2018-10-18T01:05:48.000Z,34.97
2018-10-18T01:10:51.326Z,39.23
2018-10-18T01:15:54.628Z,35.37
2018-10-18T01:20:57.922Z,38.07
2018-10-18T01:26:01.678Z,41.57
2018-10-18T01:31:05.016Z,40.10
2018-10-18T01:36:08.378Z,37.30
2018-10-18T01:41:11.668Z,36.53
2018-10-18T01:46:14.977Z,39.93
2018-10-18T01:51:18.277Z,39.60
2018-10-18T01:56:21.627Z,33.57
2018-10-18T02:01:24.925Z,38.33
2018-10-18T02:06:28.253Z,43.43
2018-10-18T02:11:31.556Z,40.07
2018-10-18T02:16:34.901Z,36.00
2018-10-18T02:21:38.187Z,40.30
2018-10-18T02:26:41.455Z,41.53
2018-10-18T02:31:44.770Z,41.87
2018-10-18T02:36:48.079Z,39.00
2018-10-18T02:41:51.444Z,39.27
2018-10-18T02:46:54.800Z,40.47
2018-10-18T02:51:58.154Z,40.80
2018-10-18T02:57:01.506Z,35.63
2018-10-18T03:02:05.308Z,37.27
2018-10-18T03:07:08.948Z,38.57
2018-10-18T03:12:12.327Z,38.63
2018-10-18T03:17:15.603Z,39.57
2018-10-18T03:22:18.947Z,35.27
2018-10-18T03:27:22.239Z,35.67
2018-10-18T03:32:25.564Z,35.73
2018-10-18T03:37:28.861Z,43.60
2018-10-18T03:42:32.175Z,40.93
2018-10-18T03:47:35.566Z,40.63
2018-10-18T03:52:38.875Z,41.37
2018-10-18T03:57:42.223Z,42.53
2018-10-18T04:02:45.608Z,43.60
2018-10-18T04:07:48.935Z,44.73
2018-10-18T04:12:52.370Z,43.97
2018-10-18T04:17:55.736Z,45.07
2018-10-18T04:22:58.972Z,43.00
2018-10-18T04:28:02.339Z,42.27
2018-10-18T04:33:05.649Z,48.30
2018-10-18T04:38:08.953Z,47.47
2018-10-18T04:43:12.232Z,43.40
2018-10-18T04:48:15.614Z,45.23
2018-10-18T04:53:18.803Z,40.90
2018-10-18T04:58:22.109Z,47.47
2018-10-18T05:03:25.379Z,43.10
2018-10-18T05:08:29.023Z,40.57
2018-10-18T05:13:32.320Z,43.33
2018-10-18T05:18:35.603Z,42.87
2018-10-18T05:23:38.925Z,49.97
2018-10-18T05:28:42.197Z,41.00
2018-10-18T05:33:45.463Z,43.07
2018-10-18T05:38:48.729Z,40.63
2018-10-18T05:43:52.027Z,38.97
2018-10-18T05:48:55.330Z,40.60
2018-10-18T05:53:58.760Z,39.33
2018-10-18T05:59:01.942Z,39.37
2018-10-18T06:04:05.313Z,36.77
2018-10-18T06:09:11.621Z,38.70
2018-10-18T06:14:14.917Z,38.90
2018-10-18T06:19:18.342Z,37.83
2018-10-18T06:24:21.576Z,43.40
2018-10-18T06:29:24.883Z,39.17
2018-10-18T06:34:28.257Z,41.50
2018-10-18T06:39:31.664Z,40.83
2018-10-18T06:44:34.969Z,36.90
2018-10-18T06:49:38.436Z,40.87
2018-10-18T06:54:41.764Z,39.83
2018-10-18T06:59:45.132Z,41.37
2018-10-18T07:04:48.439Z,37.07
2018-10-18T07:09:51.781Z,46.60
2018-10-18T07:14:55.199Z,48.80
2018-10-18T07:19:58.491Z,51.33
2018-10-18T07:25:01.805Z,49.40
2018-10-18T07:30:06.990Z,45.83
2018-10-18T07:35:11.467Z,51.17
2018-10-18T07:40:15.919Z,52.13
2018-10-18T07:45:19.201Z,59.17
2018-10-18T07:50:22.507Z,58.02
2018-10-18T07:55:25.833Z,54.70
2018-10-18T08:00:29.471Z,51.57
2018-10-18T08:05:32.714Z,53.93
2018-10-18T08:10:36.153Z,52.77
2018-10-18T08:15:39.741Z,57.67
2018-10-18T08:20:43.569Z,58.07
2018-10-18T08:25:46.929Z,55.50
2018-10-18T08:30:53.489Z,52.90
2018-10-18T08:35:56.815Z,54.83
2018-10-18T08:41:00.335Z,57.40
2018-10-18T08:46:03.810Z,53.77
2018-10-18T08:51:07.249Z,54.70
2018-10-18T08:56:10.852Z,62.10
2018-10-18T09:01:14.324Z,64.17
2018-10-18T09:06:17.800Z,64.93
2018-10-18T09:11:21.449Z,70.43
2018-10-18T09:16:24.905Z,66.30
2018-10-18T09:21:28.355Z,65.93
2018-10-18T09:26:31.672Z,68.77
2018-10-18T09:31:35.153Z,66.93
2018-10-18T09:36:38.666Z,70.13
2018-10-18T09:41:42.306Z,69.17
2018-10-18T09:46:45.724Z,74.13
2018-10-18T09:51:49.167Z,64.30
2018-10-18T09:56:52.769Z,59.87
2018-10-18T10:02:01.389Z,57.87
2018-10-18T10:07:04.954Z,64.23
2018-10-18T10:12:08.324Z,61.37
2018-10-18T10:17:11.794Z,69.77
2018-10-18T10:22:15.313Z,70.40
2018-10-18T10:27:18.609Z,79.40
2018-10-18T10:32:22.140Z,76.50
2018-10-18T10:37:25.538Z,83.83
2018-10-18T10:42:29.117Z,78.73
2018-10-18T10:47:32.584Z,84.33
2018-10-18T10:52:35.949Z,78.12
2018-10-18T10:57:39.269Z,89.57
2018-10-18T11:02:42.878Z,96.50
2018-10-18T11:07:46.506Z,92.30
2018-10-18T11:12:49.953Z,90.60
2018-10-18T11:17:53.555Z,90.33
2018-10-18T11:22:57.204Z,85.47
2018-10-18T11:28:00.742Z,83.10
2018-10-18T11:33:04.238Z,86.27
2018-10-18T11:38:07.863Z,76.60
2018-10-18T11:43:11.753Z,81.93
2018-10-18T11:48:15.587Z,86.77
2018-10-18T11:53:19.013Z,89.10
2018-10-18T11:58:22.323Z,77.70
2018-10-18T12:03:25.866Z,81.40
2018-10-18T12:08:29.319Z,88.00
2018-10-18T12:13:33.025Z,96.00
2018-10-18T12:18:36.647Z,103.40
2018-10-18T12:23:40.344Z,90.30
2018-10-18T12:28:43.822Z,80.27
2018-10-18T12:33:47.233Z,64.40
2018-10-18T12:38:50.629Z,69.30
2018-10-18T12:43:54.406Z,63.47
2018-10-18T12:48:57.977Z,68.80
2018-10-18T12:54:01.393Z,53.53
2018-10-18T12:59:04.798Z,53.20
2018-10-18T13:04:08.487Z,51.93
2018-10-18T13:09:11.985Z,48.77
2018-10-18T13:14:15.709Z,47.37
2018-10-18T13:19:18.985Z,47.63
2018-10-18T13:24:22.667Z,48.07
2018-10-18T13:29:26.057Z,46.13
2018-10-18T13:34:29.390Z,48.13
2018-10-18T13:39:32.701Z,46.70
2018-10-18T13:44:36.034Z,45.73
2018-10-18T13:49:40.550Z,44.27
2018-10-18T13:54:44.198Z,49.03
2018-10-18T13:59:59.049Z,47.17
2018-10-18T14:05:02.465Z,45.57
2018-10-18T14:10:06.054Z,44.40
2018-10-18T14:15:09.575Z,48.03
2018-10-18T14:20:13.046Z,54.57
2018-10-18T14:25:16.436Z,49.53
2018-10-18T14:30:20.050Z,50.67
2018-10-18T14:35:23.402Z,47.77
2018-10-18T14:40:26.803Z,47.47
2018-10-18T14:45:30.137Z,42.80
2018-10-18T14:50:33.587Z,44.73
2018-10-18T14:55:37.118Z,54.17
2018-10-18T15:00:40.494Z,49.03
2018-10-18T15:05:44.659Z,46.03
2018-10-18T15:10:48.074Z,48.03
2018-10-18T15:15:52.558Z,51.03
2018-10-18T15:20:55.897Z,48.27
2018-10-18T15:25:59.526Z,49.27
2018-10-18T15:31:02.868Z,44.80
2018-10-18T15:36:06.330Z,46.00
2018-10-18T15:41:09.904Z,55.10
2018-10-18T15:46:13.357Z,49.57
2018-10-18T15:51:16.795Z,47.83
2018-10-18T15:56:20.413Z,46.37
2018-10-18T16:01:23.765Z,49.00
2018-10-18T16:06:27.242Z,51.83
2018-10-18T16:11:30.540Z,49.47
2018-10-18T16:16:33.886Z,53.80
2018-10-18T16:21:37.231Z,50.17
2018-10-18T16:26:40.706Z,52.87
2018-10-18T16:31:44.014Z,51.53
2018-10-18T16:36:47.379Z,48.47
2018-10-18T16:41:50.796Z,51.53
2018-10-18T16:46:55.351Z,51.87
2018-10-18T16:51:58.747Z,52.57
2018-10-18T16:57:02.100Z,51.67
2018-10-18T17:02:05.858Z,51.00
2018-10-18T17:07:09.223Z,54.37
2018-10-18T17:12:12.594Z,50.03
2018-10-18T17:17:16.030Z,49.57
2018-10-18T17:22:35.261Z,51.77
2018-10-18T17:27:38.843Z,49.47
2018-10-18T17:32:42.567Z,48.00
2018-10-18T17:37:46.117Z,48.68
2018-10-18T17:42:49.878Z,49.07
2018-10-18T17:47:53.258Z,41.23
2018-10-18T17:52:56.691Z,49.50
2018-10-18T17:57:59.995Z,47.33
2018-10-18T18:03:03.398Z,40.63
2018-10-18T18:08:06.789Z,46.67
2018-10-18T18:13:10.124Z,40.30
2018-10-18T18:18:13.470Z,39.57
2018-10-18T18:23:16.834Z,43.30
2018-10-18T18:28:20.165Z,49.60
2018-10-18T18:33:23.568Z,43.53
2018-10-18T18:38:26.994Z,41.40
2018-10-18T18:43:30.667Z,41.77
2018-10-18T18:48:34.153Z,44.13
2018-10-18T18:53:37.614Z,45.07
2018-10-18T18:58:40.921Z,41.83
2018-10-18T19:03:44.249Z,44.83
2018-10-18T19:08:47.593Z,43.43
2018-10-18T19:13:51.025Z,46.40
2018-10-18T19:18:54.383Z,46.23
2018-10-18T19:23:57.767Z,36.97
2018-10-18T19:29:01.193Z,37.30
2018-10-18T19:34:04.579Z,41.18
2018-10-18T19:39:08.265Z,37.53
2018-10-18T19:44:11.667Z,43.00
2018-10-18T19:49:15.006Z,43.47
2018-10-18T19:54:18.729Z,34.20
2018-10-18T19:59:22.027Z,35.03
2018-10-18T20:04:25.375Z,30.17
2018-10-18T20:09:28.693Z,30.33
2018-10-18T20:14:32.078Z,25.80
2018-10-18T20:19:35.385Z,28.50
2018-10-18T20:24:39.392Z,25.87
2018-10-18T20:29:42.698Z,22.80
2018-10-18T20:34:46.006Z,19.13
2018-10-18T20:39:49.310Z,19.93
2018-10-18T20:44:52.661Z,18.73
2018-10-18T20:49:56.001Z,22.30
2018-10-18T20:54:59.318Z,19.40
2018-10-18T21:00:02.889Z,27.40
2018-10-18T21:05:06.619Z,20.90
2018-10-18T21:10:09.990Z,20.37
2018-10-18T21:15:13.455Z,21.27
2018-10-18T21:20:17.030Z,23.70
2018-10-18T21:25:20.337Z,20.73
2018-10-18T21:30:23.664Z,23.07
2018-10-18T21:35:26.970Z,23.43
2018-10-18T21:40:30.336Z,20.03
2018-10-18T21:45:33.889Z,18.87
2018-10-18T21:50:37.191Z,21.43
2018-10-18T21:55:40.555Z,17.73
2018-10-18T22:00:45.296Z,17.40
2018-10-18T22:05:48.801Z,16.80
2018-10-18T22:10:52.164Z,15.43
2018-10-18T22:15:55.570Z,15.00
2018-10-18T22:20:58.968Z,17.17
2018-10-18T22:26:02.239Z,16.87
2018-10-18T22:31:06.023Z,17.27
2018-10-18T22:36:09.388Z,16.17
2018-10-18T22:41:12.851Z,16.03
2018-10-18T22:46:16.230Z,19.27
2018-10-18T22:51:19.670Z,21.23
2018-10-18T22:56:23.037Z,16.40
2018-10-18T23:01:26.399Z,17.30
2018-10-18T23:06:29.767Z,15.80
2018-10-18T23:11:33.121Z,20.97
2018-10-18T23:16:36.804Z,18.93
2018-10-18T23:21:40.141Z,17.87
2018-10-18T23:26:43.490Z,15.43
2018-10-18T23:31:46.837Z,15.20
2018-10-18T23:36:50.157Z,12.43
2018-10-18T23:41:53.483Z,12.33
2018-10-18T23:46:56.823Z,10.80
2018-10-18T23:52:00.192Z,11.60
2018-10-18T23:57:03.653Z,10.70
